Time;durP1;ratioP1;P1;durP2;ratioP2;P2;SDS_P1;SDS_P2;PMS_P1;PMS_P2;Temp;Humidity;BMP_temperature;BMP_pressure;BME280_temperature;BME280_humidity;BME280_pressure;Samples;Min_cycle;Max_cycle;Signal;HPM_P1;HPM_P2
2023/01/18 00:00:40;;;;;;;125.93;61.78;;;308.00;2304.00;;;;;;5046598;28;20550;-60
2023/01/18 00:03:11;;;;;;;197.65;92.55;;;308.00;2304.00;;;;;;5047957;28;20494;-64
2023/01/18 00:05:41;;;;;;;115.75;58.97;;;308.10;2304.00;;;;;;5048421;28;20072;-60
2023/01/18 00:08:11;;;;;;;130.55;60.53;;;332.80;2329.60;;;;;;5048265;28;20032;-59
2023/01/18 00:10:37;;;;;;;62.40;30.63;;;332.90;2329.60;;;;;;5065707;28;20094;-61
2023/01/18 00:13:04;;;;;;;67.70;34.78;;;333.00;2329.60;;;;;;5070494;28;20025;-61
2023/01/18 00:15:30;;;;;;;43.17;21.65;;;333.20;2329.60;;;;;;5069782;28;20020;-60
2023/01/18 00:17:56;;;;;;;60.25;31.48;;;333.20;2329.60;;;;;;5070557;28;20024;-60
2023/01/18 00:20:24;;;;;;;130.65;55.92;;;333.20;2329.60;;;;;;5070587;28;20078;-60
2023/01/18 00:22:51;;;;;;;68.88;36.17;;;333.20;2329.60;;;;;;5070544;28;20470;-69
2023/01/18 00:25:18;;;;;;;77.43;35.47;;;333.30;2329.60;;;;;;5070466;28;20037;-60
2023/01/18 00:27:47;;;;;;;41.45;22.17;;;333.30;2329.60;;;;;;5070549;28;20060;-61
2023/01/18 00:30:14;;;;;;;130.90;60.78;;;333.20;2329.60;;;;;;5070549;28;20567;-60
2023/01/18 00:32:39;;;;;;;110.22;52.83;;;333.00;2329.60;;;;;;5070372;28;20028;-60
2023/01/18 00:35:06;;;;;;;178.93;84.00;;;333.00;2329.60;;;;;;5070163;28;20033;-61
2023/01/18 00:37:34;;;;;;;45.33;22.90;;;332.90;2329.60;;;;;;5070423;28;20025;-67
2023/01/18 00:39:59;;;;;;;114.75;55.60;;;332.90;2329.60;;;;;;5070537;28;20029;-60
2023/01/18 00:45:10;;;;;;;100.18;48.97;;;308.10;2304.00;;;;;;5050594;28;20139;-60
2023/01/18 00:47:36;;;;;;;167.80;93.95;;;308.10;2304.00;;;;;;5050100;28;20447;-61
2023/01/18 00:50:02;;;;;;;174.40;106.18;;;308.00;2304.00;;;;;;5050208;28;20075;-59
2023/01/18 00:52:28;;;;;;;49.95;25.38;;;307.90;2304.00;;;;;;5050082;28;20029;-61
2023/01/18 00:54:53;;;;;;;95.82;50.88;;;308.00;2304.00;;;;;;5050419;28;20082;-60
2023/01/18 00:57:19;;;;;;;65.70;36.95;;;308.00;2304.00;;;;;;5050242;28;20419;-68
2023/01/18 00:59:45;;;;;;;138.23;70.45;;;308.00;2304.00;;;;;;5049789;28;20100;-61
2023/01/18 01:02:12;;;;;;;74.40;37.78;;;308.00;2304.00;;;;;;5050153;28;20021;-61
2023/01/18 01:07:22;;;;;;;83.05;45.28;;;332.80;2329.60;;;;;;5050300;28;20079;-69
2023/01/18 01:09:48;;;;;;;93.57;49.08;;;332.80;2329.60;;;;;;5049820;28;20021;-68
2023/01/18 01:26:07;;;;;;;30.95;17.60;;;332.80;2329.60;;;;;;5050026;28;20044;-60
2023/01/18 01:28:38;;;;;;;50.78;30.05;;;332.80;2329.60;;;;;;5053590;28;20070;-60
2023/01/18 01:31:05;;;;;;;65.07;37.83;;;332.90;2329.60;;;;;;5053629;28;20036;-66
2023/01/18 01:33:32;;;;;;;31.05;18.05;;;332.90;2329.60;;;;;;5053539;28;20048;-60
2023/01/18 01:36:00;;;;;;;37.97;21.63;;;332.90;2329.60;;;;;;5053335;28;20025;-60
2023/01/18 01:38:27;;;;;;;77.40;42.75;;;333.00;2329.60;;;;;;5053162;28;20066;-60
2023/01/18 01:41:04;;;;;;;63.78;36.00;;;333.00;2329.60;;;;;;5053254;28;20025;-60
2023/01/18 01:43:56;;;;;;;52.30;31.80;;;333.00;2329.60;;;;;;5053183;28;20059;-60
2023/01/18 01:47:04;;;;;;;36.37;20.33;;;333.00;2329.60;;;;;;5050059;28;20566;-60
2023/01/18 01:49:34;;;;;;;81.72;44.90;;;333.00;2329.60;;;;;;4972478;28;20107;-60
2023/01/18 01:52:06;;;;;;;44.53;24.75;;;332.90;2329.60;;;;;;4972351;28;20485;-60
2023/01/18 01:54:54;;;;;;;80.65;41.53;;;332.90;2329.60;;;;;;4972331;28;20385;-59
2023/01/18 01:57:21;;;;;;;72.80;35.65;;;332.80;2329.60;;;;;;4972137;28;20030;-60
2023/01/18 02:00:09;;;;;;;110.95;58.28;;;332.80;2329.60;;;;;;4971946;28;20077;-61
2023/01/18 02:02:35;;;;;;;96.80;49.92;;;332.90;2329.60;;;;;;4972101;28;20407;-61
2023/01/18 02:05:05;;;;;;;128.75;66.35;;;332.90;2329.60;;;;;;4972155;28;20239;-63
2023/01/18 02:07:31;;;;;;;133.57;69.80;;;332.90;2329.60;;;;;;4972285;28;20031;-66
2023/01/18 02:09:59;;;;;;;198.30;103.93;;;332.90;2329.60;;;;;;4971795;28;20031;-61
2023/01/18 02:12:26;;;;;;;125.90;66.70;;;332.90;2329.60;;;;;;4971639;28;20027;-61
2023/01/18 02:14:53;;;;;;;177.88;96.25;;;332.90;2329.60;;;;;;4971819;28;20131;-60
2023/01/18 02:17:29;;;;;;;122.15;62.63;;;332.90;2329.60;;;;;;4971648;28;20508;-61
2023/01/18 02:20:28;;;;;;;125.68;67.47;;;332.90;2329.60;;;;;;5001719;28;20041;-62
2023/01/18 02:23:26;;;;;;;167.73;90.40;;;332.90;2329.60;;;;;;5052586;28;20021;-60
2023/01/18 02:26:04;;;;;;;33.42;17.88;;;332.90;2329.60;;;;;;5052512;28;20029;-61
2023/01/18 02:28:35;;;;;;;93.05;50.20;;;332.90;2329.60;;;;;;5052430;28;20028;-68
2023/01/18 02:31:06;;;;;;;76.68;39.05;;;332.80;2329.60;;;;;;5052435;28;20134;-60
2023/01/18 02:33:50;;;;;;;77.90;40.60;;;332.90;2329.60;;;;;;5052619;28;20027;-61
2023/01/18 02:36:37;;;;;;;;;;;332.90;2329.60;;;;;;5052543;28;20382;-61
2023/01/18 02:39:11;;;;;;;76.68;41.30;;;332.90;2329.60;;;;;;5051088;28;19999;-60
2023/01/18 02:47:35;;;;;;;9.65;4.43;;;308.10;2304.00;;;;;;5052373;28;20039;-61
2023/01/18 02:50:02;;;;;;;13.93;7.32;;;308.00;2304.00;;;;;;5052014;28;20546;-61
2023/01/18 02:52:38;;;;;;;9.02;4.85;;;307.80;2304.00;;;;;;5051961;28;20414;-67
2023/01/18 02:55:06;;;;;;;8.55;4.57;;;307.80;2304.00;;;;;;5052025;28;20028;-61
2023/01/18 02:57:32;;;;;;;56.88;29.50;;;307.50;2304.00;;;;;;5051684;28;20025;-63
2023/01/18 03:00:02;;;;;;;128.68;68.07;;;307.60;2304.00;;;;;;5051769;28;20013;-60
2023/01/18 03:02:28;;;;;;;97.70;46.40;;;307.60;2304.00;;;;;;5051535;28;20064;-59
2023/01/18 03:04:54;;;;;;;124.55;64.47;;;307.80;2304.00;;;;;;5051725;28;20056;-61
2023/01/18 03:07:28;;;;;;;167.07;87.38;;;307.80;2304.00;;;;;;5051794;28;20031;-61
2023/01/18 03:09:56;;;;;;;170.50;90.93;;;307.80;2304.00;;;;;;5051807;28;20017;-59
2023/01/18 03:12:44;;;;;;;59.60;30.15;;;307.80;2304.00;;;;;;5051363;28;20074;-60
2023/01/18 03:15:19;;;;;;;121.00;64.80;;;307.80;2304.00;;;;;;5051697;28;20479;-60
2023/01/18 03:17:57;;;;;;;46.88;25.42;;;307.70;2304.00;;;;;;5051404;28;20060;-61
2023/01/18 03:20:29;;;;;;;89.72;43.97;;;307.60;2304.00;;;;;;5051641;28;20024;-60
2023/01/18 03:25:49;;;;;;;122.25;68.15;;;307.50;2304.00;;;;;;5051186;28;20084;-60
2023/01/18 03:34:08;;;;;;;137.32;71.57;;;307.50;2304.00;;;;;;5051425;28;20098;-60
2023/01/18 03:36:40;;;;;;;132.25;69.28;;;307.60;2304.00;;;;;;5051024;28;20033;-61
2023/01/18 03:39:11;;;;;;;160.43;81.55;;;307.60;2304.00;;;;;;5050844;28;20544;-60
2023/01/18 03:41:42;;;;;;;130.07;68.32;;;307.60;2304.00;;;;;;5050745;28;20435;-60
2023/01/18 03:44:15;;;;;;;67.65;41.67;;;307.60;2304.00;;;;;;5050666;28;20064;-59
2023/01/18 03:46:42;;;;;;;94.30;62.65;;;307.60;2304.00;;;;;;5051110;28;20036;-59
2023/01/18 03:49:09;;;;;;;48.28;37.15;;;307.70;2304.00;;;;;;5050632;28;20108;-60
2023/01/18 03:51:46;;;;;;;35.75;24.30;;;307.60;2304.00;;;;;;5050772;28;20067;-60
2023/01/18 03:54:26;;;;;;;77.20;45.25;;;307.60;2304.00;;;;;;5051077;28;20121;-60
2023/01/18 03:57:18;;;;;;;77.78;48.13;;;307.50;2304.00;;;;;;5050875;28;20024;-60
2023/01/18 03:59:45;;;;;;;52.78;31.48;;;307.50;2304.00;;;;;;5050599;28;20059;-61
2023/01/18 04:02:10;;;;;;;23.55;11.85;;;307.50;2304.00;;;;;;5050810;28;20083;-60
2023/01/18 04:04:36;;;;;;;13.18;7.07;;;307.30;2304.00;;;;;;5050507;28;20032;-60
2023/01/18 04:07:02;;;;;;;41.85;23.65;;;307.30;2304.00;;;;;;5050683;28;20147;-60
2023/01/18 04:09:28;;;;;;;6.55;4.35;;;307.30;2304.00;;;;;;5050402;28;20426;-60
2023/01/18 04:11:54;;;;;;;16.33;9.70;;;307.30;2304.00;;;;;;5050409;28;20035;-61
2023/01/18 04:14:19;;;;;;;13.73;8.07;;;307.30;2304.00;;;;;;5050536;28;20383;-60
2023/01/18 04:16:45;;;;;;;38.45;25.67;;;307.30;2304.00;;;;;;5050358;28;20025;-61
2023/01/18 04:19:11;;;;;;;9.32;5.65;;;307.40;2304.00;;;;;;5050586;28;20498;-60
2023/01/18 04:21:37;;;;;;;8.40;4.22;;;307.30;2304.00;;;;;;5050315;28;20021;-60
2023/01/18 04:24:04;;;;;;;14.00;9.07;;;307.30;2304.00;;;;;;5050446;28;20036;-68
2023/01/18 04:26:30;;;;;;;20.90;12.57;;;307.20;2304.00;;;;;;5050282;28;20475;-60
2023/01/18 04:28:55;;;;;;;25.65;17.38;;;282.50;2278.40;;;;;;5050471;28;20025;-60
2023/01/18 04:31:21;;;;;;;17.30;9.68;;;282.50;2278.40;;;;;;5050635;28;20024;-61
2023/01/18 04:33:50;;;;;;;29.23;18.35;;;282.30;2278.40;;;;;;5050206;28;20371;-61
2023/01/18 04:36:16;;;;;;;35.22;22.55;;;282.40;2278.40;;;;;;5050133;28;20546;-60
2023/01/18 04:38:42;;;;;;;57.55;33.10;;;282.30;2278.40;;;;;;5050302;28;20494;-60
2023/01/18 04:41:08;;;;;;;52.20;30.85;;;282.20;2278.40;;;;;;5050067;28;20037;-67
2023/01/18 04:43:33;;;;;;;80.82;47.20;;;282.20;2278.40;;;;;;5050165;28;20481;-61
2023/01/18 04:45:59;;;;;;;29.05;17.27;;;282.20;2278.40;;;;;;5050270;28;20040;-60
2023/01/18 04:48:25;;;;;;;13.13;7.97;;;282.20;2278.40;;;;;;5046371;28;20427;-61
2023/01/18 04:50:51;;;;;;;17.83;10.70;;;282.20;2278.40;;;;;;5030420;28;20112;-66
2023/01/18 04:53:17;;;;;;;25.05;15.60;;;282.30;2278.40;;;;;;5030531;28;20022;-61
2023/01/18 04:55:43;;;;;;;14.00;9.00;;;282.40;2278.40;;;;;;5030231;28;20566;-62
2023/01/18 04:58:09;;;;;;;91.85;46.72;;;282.30;2278.40;;;;;;5030401;28;20030;-61
2023/01/18 05:00:38;;;;;;;31.55;17.40;;;282.40;2278.40;;;;;;5030197;28;20549;-61
2023/01/18 05:03:07;;;;;;;18.55;10.77;;;282.40;2278.40;;;;;;5033301;28;20113;-61
2023/01/18 05:05:33;;;;;;;51.55;27.05;;;282.50;2278.40;;;;;;5034332;28;20037;-60
2023/01/18 05:07:59;;;;;;;46.45;24.83;;;307.20;2304.00;;;;;;5033971;28;20425;-60
2023/01/18 05:10:25;;;;;;;44.65;21.17;;;307.20;2304.00;;;;;;5033614;28;20034;-60
2023/01/18 05:12:50;;;;;;;58.80;30.50;;;307.20;2304.00;;;;;;5034207;28;20056;-59
2023/01/18 05:15:17;;;;;;;34.97;16.60;;;307.30;2304.00;;;;;;5033616;28;20484;-60
2023/01/18 05:17:43;;;;;;;57.42;33.30;;;307.30;2304.00;;;;;;5033752;28;20033;-68
2023/01/18 05:20:10;;;;;;;48.53;26.65;;;307.30;2304.00;;;;;;5033574;28;20025;-67
2023/01/18 05:22:36;;;;;;;46.20;25.52;;;307.40;2304.00;;;;;;5033492;28;20227;-61
2023/01/18 05:25:03;;;;;;;52.00;26.15;;;307.30;2304.00;;;;;;5033461;28;20037;-61
2023/01/18 05:27:29;;;;;;;41.38;20.30;;;307.30;2304.00;;;;;;5033520;28;20026;-60
2023/01/18 05:29:54;;;;;;;64.97;34.90;;;307.30;2304.00;;;;;;5033234;28;20024;-61
2023/01/18 05:32:20;;;;;;;38.75;19.98;;;307.40;2304.00;;;;;;5033684;28;20104;-60
2023/01/18 05:34:46;;;;;;;49.70;25.88;;;307.50;2304.00;;;;;;5033482;28;20040;-61
2023/01/18 05:37:11;;;;;;;57.80;30.23;;;307.60;2304.00;;;;;;5033749;28;20026;-61
2023/01/18 05:39:37;;;;;;;46.45;24.45;;;307.60;2304.00;;;;;;5033284;28;20545;-60
2023/01/18 05:42:04;;;;;;;49.58;27.75;;;307.60;2304.00;;;;;;5033021;28;20427;-60
2023/01/18 05:44:30;;;;;;;56.78;29.42;;;307.60;2304.00;;;;;;5033380;28;20088;-61
2023/01/18 05:46:56;;;;;;;22.20;12.43;;;307.60;2304.00;;;;;;5033088;28;20048;-61
2023/01/18 05:49:22;;;;;;;27.23;14.98;;;307.70;2304.00;;;;;;5033363;28;20029;-61
2023/01/18 05:51:47;;;;;;;23.20;11.95;;;307.70;2304.00;;;;;;5033156;28;20026;-61
2023/01/18 05:54:13;;;;;;;21.67;11.15;;;307.80;2304.00;;;;;;5033252;28;20021;-67
2023/01/18 05:56:39;;;;;;;16.67;10.02;;;307.80;2304.00;;;;;;5032952;28;20037;-60
2023/01/18 05:59:05;;;;;;;23.13;13.93;;;307.80;2304.00;;;;;;5032734;28;20025;-61
2023/01/18 06:01:30;;;;;;;23.30;12.52;;;307.80;2304.00;;;;;;5033310;28;20067;-64
2023/01/18 06:03:56;;;;;;;24.63;13.85;;;307.80;2304.00;;;;;;5033387;28;20025;-61
2023/01/18 06:06:22;;;;;;;20.20;10.65;;;307.90;2304.00;;;;;;5052578;28;20049;-60
2023/01/18 06:08:48;;;;;;;21.85;12.55;;;308.00;2304.00;;;;;;5052710;28;20025;-60
2023/01/18 06:11:13;;;;;;;28.67;15.73;;;308.00;2304.00;;;;;;5052813;28;20502;-60
2023/01/18 06:13:39;;;;;;;10.82;5.85;;;307.90;2304.00;;;;;;5052456;28;20057;-64
2023/01/18 06:16:05;;;;;;;9.93;5.68;;;308.10;2304.00;;;;;;5052713;28;20078;-61
2023/01/18 06:18:32;;;;;;;32.78;19.52;;;332.80;2329.60;;;;;;5052804;28;20087;-60
2023/01/18 06:21:00;;;;;;;9.48;5.53;;;332.90;2329.60;;;;;;5052549;28;20033;-68
2023/01/18 06:23:26;;;;;;;18.52;9.35;;;332.90;2329.60;;;;;;5052249;28;20116;-61
2023/01/18 06:25:52;;;;;;;12.70;6.82;;;332.90;2329.60;;;;;;5052500;28;20421;-59
2023/01/18 06:28:18;;;;;;;16.88;9.25;;;333.00;2329.60;;;;;;5052102;28;20033;-60
2023/01/18 06:30:46;;;;;;;9.73;6.70;;;333.00;2329.60;;;;;;5052729;28;20025;-60
2023/01/18 06:33:13;;;;;;;10.43;6.05;;;332.90;2329.60;;;;;;5038403;28;20446;-60
2023/01/18 06:35:42;;;;;;;27.98;18.13;;;332.90;2329.60;;;;;;5032176;28;20030;-60
2023/01/18 06:38:07;;;;;;;5.22;2.63;;;332.90;2329.60;;;;;;5032123;28;20104;-60
2023/01/18 06:40:33;;;;;;;13.98;8.45;;;332.80;2329.60;;;;;;5032229;28;20076;-61
2023/01/18 06:42:59;;;;;;;29.85;17.30;;;332.80;2329.60;;;;;;5031943;28;20050;-60
2023/01/18 06:45:25;;;;;;;11.32;6.43;;;332.80;2329.60;;;;;;5032097;28;20053;-61
2023/01/18 06:47:51;;;;;;;19.30;9.75;;;332.90;2329.60;;;;;;5032294;28;20079;-59
2023/01/18 06:50:17;;;;;;;11.13;7.97;;;332.90;2329.60;;;;;;5031966;28;20052;-60
2023/01/18 06:52:43;;;;;;;10.27;5.95;;;333.00;2329.60;;;;;;5032121;28;20494;-59
2023/01/18 06:55:10;;;;;;;5.72;4.15;;;333.10;2329.60;;;;;;5031818;28;20025;-60
2023/01/18 06:57:36;;;;;;;10.85;8.30;;;333.10;2329.60;;;;;;5031858;28;20040;-60
2023/01/18 07:00:05;;;;;;;6.57;4.45;;;333.20;2329.60;;;;;;5031900;28;20460;-59
2023/01/18 07:02:31;;;;;;;8.95;4.78;;;333.20;2329.60;;;;;;5031830;28;20105;-58
2023/01/18 07:04:57;;;;;;;7.85;4.88;;;333.30;2329.60;;;;;;5031578;28;20028;-60
2023/01/18 07:07:23;;;;;;;19.90;13.52;;;333.30;2329.60;;;;;;5031689;28;20022;-61
2023/01/18 07:09:49;;;;;;;15.48;9.07;;;333.30;2329.60;;;;;;5031490;28;20108;-60
2023/01/18 07:12:15;;;;;;;10.95;8.48;;;333.40;2329.60;;;;;;5031237;28;20026;-61
2023/01/18 07:14:41;;;;;;;21.25;17.45;;;333.40;2329.60;;;;;;5031832;28;20068;-61
2023/01/18 07:17:07;;;;;;;11.90;9.75;;;333.60;2329.60;;;;;;5031565;28;20021;-60
2023/01/18 07:19:33;;;;;;;21.48;19.00;;;333.60;2329.60;;;;;;5031603;28;20040;-60
2023/01/18 07:21:59;;;;;;;5.28;4.53;;;333.60;2329.60;;;;;;5031294;28;20026;-59
2023/01/18 07:24:25;;;;;;;19.58;7.05;;;333.70;2329.60;;;;;;5030596;28;20030;-61
2023/01/18 07:26:51;;;;;;;41.80;22.33;;;333.70;2329.60;;;;;;5031305;28;20033;-61
2023/01/18 07:29:16;;;;;;;14.98;9.10;;;358.40;2329.60;;;;;;5030970;28;20369;-58
2023/01/18 07:31:42;;;;;;;28.35;15.35;;;358.40;2329.60;;;;;;5031382;28;20021;-59
2023/01/18 07:34:09;;;;;;;74.25;42.28;;;358.40;2329.60;;;;;;5031106;28;20026;-60
2023/01/18 07:36:37;;;;;;;14.63;7.05;;;358.40;2329.60;;;;;;5031252;28;20384;-61
2023/01/18 07:39:03;;;;;;;66.38;38.55;;;358.40;2329.60;;;;;;5031236;28;20658;-60
2023/01/18 07:41:29;;;;;;;36.75;19.88;;;358.40;2329.60;;;;;;5030793;28;20061;-61
2023/01/18 07:43:55;;;;;;;29.10;16.48;;;358.50;2329.60;;;;;;5047767;28;20136;-61
2023/01/18 07:46:21;;;;;;;8.88;4.55;;;358.50;2329.60;;;;;;5050878;28;20482;-61
2023/01/18 07:48:47;;;;;;;44.22;22.25;;;358.50;2329.60;;;;;;5050764;28;20033;-61
2023/01/18 07:51:14;;;;;;;29.85;15.40;;;358.50;2329.60;;;;;;5050898;28;20094;-61
2023/01/18 07:53:43;;;;;;;20.42;11.25;;;358.60;2329.60;;;;;;5050739;28;20032;-60
2023/01/18 07:56:12;;;;;;;85.18;48.17;;;358.60;2329.60;;;;;;5050581;28;20017;-61
2023/01/18 07:58:38;;;;;;;13.77;6.93;;;358.60;2329.60;;;;;;5050612;28;20387;-61
2023/01/18 08:01:10;;;;;;;77.00;43.35;;;358.70;2329.60;;;;;;5050914;28;20400;-60
2023/01/18 08:03:36;;;;;;;130.20;74.47;;;358.70;2329.60;;;;;;5050563;28;20036;-61
2023/01/18 08:06:05;;;;;;;20.42;10.80;;;358.90;2329.60;;;;;;5050626;28;20033;-60
2023/01/18 08:08:30;;;;;;;38.72;23.67;;;384.30;2329.60;;;;;;5050666;28;20021;-61
2023/01/18 08:11:02;;;;;;;245.60;130.25;;;384.50;2329.60;;;;;;5050303;28;20087;-61
2023/01/18 08:13:28;;;;;;;66.75;35.53;;;410.50;2278.40;;;;;;5050507;28;20069;-61
2023/01/18 08:15:57;;;;;;;18.45;10.77;;;460.90;2099.20;;;;;;5050550;28;20049;-61
2023/01/18 08:18:23;;;;;;;27.73;16.30;;;461.10;2073.60;;;;;;5050653;28;20108;-60
2023/01/18 08:20:49;;;;;;;184.25;105.03;;;486.50;1945.60;;;;;;5050145;28;20107;-61
2023/01/18 08:23:16;;;;;;;101.75;55.53;;;487.10;1894.40;;;;;;5050488;28;20054;-61
2023/01/18 08:25:42;;;;;;;6.70;4.35;;;512.50;1843.20;;;;;;5050334;28;20037;-62
2023/01/18 08:28:09;;;;;;;119.32;67.22;;;537.70;1792.00;;;;;;5050227;28;20036;-62
2023/01/18 08:30:38;;;;;;;11.63;6.80;;;537.80;1740.80;;;;;;5050327;28;20344;-62
2023/01/18 08:33:04;;;;;;;22.30;13.75;;;538.50;1715.20;;;;;;5049065;28;20368;-62
2023/01/18 08:35:33;;;;;;;28.10;15.15;;;563.40;1664.00;;;;;;5050386;28;20368;-61
2023/01/18 08:38:00;;;;;;;134.35;79.95;;;563.60;1638.40;;;;;;5053390;28;20051;-62
2023/01/18 08:40:26;;;;;;;400.40;237.75;;;564.10;1638.40;;;;;;5061205;28;20082;-62
2023/01/18 08:42:59;;;;;;;55.65;31.30;;;589.30;1587.20;;;;;;5065851;28;20057;-59
2023/01/18 08:45:25;;;;;;;;;;;614.40;1536.00;;;;;;5054553;28;20036;-59
2023/01/18 08:47:59;;;;;;;379.65;228.00;;;614.70;1510.40;;;;;;5054278;28;19905;-59
2023/01/18 08:50:26;;;;;;;213.65;117.45;;;588.90;1561.60;;;;;;5054251;28;20021;-60
2023/01/18 08:52:52;;;;;;;291.85;165.95;;;538.50;1638.40;;;;;;5054635;28;20021;-60
2023/01/18 08:55:19;;;;;;;325.73;167.30;;;538.40;1664.00;;;;;;5054227;28;20028;-60
2023/01/18 08:57:44;;;;;;;15.02;13.38;;;563.80;1612.80;;;;;;5054552;28;20021;-60
2023/01/18 09:00:11;;;;;;;12.60;8.35;;;563.40;1664.00;;;;;;5054252;28;20024;-60
2023/01/18 09:02:36;;;;;;;14.80;10.05;;;538.00;1792.00;;;;;;5054006;28;20029;-61
2023/01/18 09:05:02;;;;;;;15.98;11.70;;;537.90;1792.00;;;;;;5054149;28;20071;-60
2023/01/18 09:07:28;;;;;;;14.45;12.60;;;563.40;1766.40;;;;;;5053847;28;20079;-60
2023/01/18 09:09:53;;;;;;;20.52;14.68;;;538.30;1766.40;;;;;;5053876;28;20021;-60
2023/01/18 09:12:19;;;;;;;8.30;6.40;;;538.50;1766.40;;;;;;5053607;28;20060;-60
2023/01/18 09:14:45;;;;;;;19.10;17.10;;;538.10;1766.40;;;;;;5053958;28;20056;-62
2023/01/18 09:17:10;;;;;;;8.68;6.93;;;563.30;1766.40;;;;;;5053733;28;20438;-63
2023/01/18 09:19:36;;;;;;;28.35;21.15;;;512.70;1766.40;;;;;;5053507;28;20056;-60
2023/01/18 09:22:02;;;;;;;15.50;12.75;;;537.80;1817.60;;;;;;5053789;28;20029;-57
2023/01/18 09:24:28;;;;;;;13.02;11.70;;;563.50;1740.80;;;;;;5053477;28;20061;-58
2023/01/18 09:26:54;;;;;;;16.60;13.73;;;563.70;1715.20;;;;;;5053697;28;20060;-59
2023/01/18 09:29:20;;;;;;;11.15;9.32;;;589.60;1638.40;;;;;;5053526;28;20090;-58
2023/01/18 09:31:47;;;;;;;16.75;13.02;;;563.20;1766.40;;;;;;5035711;28;20439;-59
2023/01/18 09:34:14;;;;;;;12.50;11.20;;;588.80;1715.20;;;;;;5053648;28;20024;-59
2023/01/18 09:36:40;;;;;;;12.75;10.88;;;589.00;1689.60;;;;;;5053370;28;20032;-58
2023/01/18 09:39:06;;;;;;;13.23;10.45;;;538.30;1740.80;;;;;;5053299;28;20017;-59
2023/01/18 09:41:43;;;;;;;11.90;10.32;;;512.60;1792.00;;;;;;5053305;28;20211;-58
2023/01/18 09:44:35;;;;;;;16.83;14.65;;;486.80;1868.80;;;;;;5053463;28;20053;-58
2023/01/18 09:47:01;;;;;;;15.40;11.32;;;512.90;1766.40;;;;;;5052731;28;20036;-58
2023/01/18 09:49:43;;;;;;;24.83;17.90;;;512.10;1843.20;;;;;;5044580;28;20104;-58
2023/01/18 09:52:36;;;;;;;17.70;13.88;;;487.30;1894.40;;;;;;5051749;28;20032;-57
2023/01/18 09:55:23;;;;;;;55.60;45.45;;;487.10;1894.40;;;;;;5050905;28;20036;-57
2023/01/18 09:57:55;;;;;;;36.70;30.63;;;512.90;1817.60;;;;;;5051381;28;20029;-58
2023/01/18 10:00:28;;;;;;;16.67;13.27;;;537.80;1792.00;;;;;;5051657;28;20033;-57
2023/01/18 10:02:59;;;;;;;21.65;17.38;;;512.90;1817.60;;;;;;5049024;28;20104;-59
2023/01/18 10:05:33;;;;;;;25.73;20.52;;;512.60;1792.00;;;;;;5051440;28;20119;-58
2023/01/18 10:08:24;;;;;;;18.33;13.48;;;487.00;1894.40;;;;;;5049625;28;20021;-59
2023/01/18 10:11:12;;;;;;;58.25;35.63;;;461.60;1971.20;;;;;;5050758;28;20489;-60
2023/01/18 10:14:05;;;;;;;17.52;13.82;;;461.20;2022.40;;;;;;5051496;28;20025;-57
2023/01/18 10:16:33;;;;;;;41.35;28.38;;;460.90;2048.00;;;;;;5032934;28;20095;-57
2023/01/18 10:19:00;;;;;;;22.35;15.48;;;435.30;2150.40;;;;;;5051334;28;20096;-57
2023/01/18 10:21:41;;;;;;;23.10;16.20;;;435.20;2201.60;;;;;;5051360;28;20033;-57
2023/01/18 10:24:44;;;;;;;24.50;17.23;;;435.20;2227.20;;;;;;5052444;28;20029;-58
2023/01/18 10:27:30;;;;;;;11.63;9.05;;;409.90;2329.60;;;;;;5052119;28;20122;-57
2023/01/18 10:30:03;;;;;;;12.10;8.88;;;384.90;2329.60;;;;;;5052181;28;20062;-57
2023/01/18 10:32:32;;;;;;;15.55;11.15;;;384.70;2329.60;;;;;;5052374;28;20029;-57
2023/01/18 10:34:59;;;;;;;15.30;11.02;;;384.80;2329.60;;;;;;5052363;28;20036;-59
2023/01/18 10:37:36;;;;;;;16.33;12.13;;;409.60;2355.20;;;;;;5052631;28;20021;-57
2023/01/18 10:40:08;;;;;;;15.20;9.27;;;384.70;2329.60;;;;;;5052367;28;20036;-57
2023/01/18 10:42:45;;;;;;;32.63;21.40;;;384.50;2329.60;;;;;;5052423;28;20126;-57
2023/01/18 10:45:22;;;;;;;24.65;16.73;;;384.50;2329.60;;;;;;5052083;28;20028;-57
2023/01/18 10:47:49;;;;;;;42.97;28.90;;;384.30;2329.60;;;;;;5052039;28;20029;-57
2023/01/18 10:50:31;;;;;;;25.00;17.55;;;384.30;2329.60;;;;;;5052418;28;20021;-57
2023/01/18 10:52:57;;;;;;;51.88;34.33;;;384.40;2329.60;;;;;;5050274;28;20470;-57
2023/01/18 10:55:23;;;;;;;20.25;13.52;;;384.40;2329.60;;;;;;5050749;28;20021;-57
2023/01/18 10:57:53;;;;;;;12.85;10.02;;;384.50;2329.60;;;;;;5050271;28;20536;-57
2023/01/18 11:00:32;;;;;;;44.25;28.02;;;384.30;2329.60;;;;;;5048220;28;20056;-57
2023/01/18 11:03:00;;;;;;;36.25;23.65;;;384.40;2329.60;;;;;;5048162;28;20021;-55
2023/01/18 11:05:33;;;;;;;20.83;13.23;;;384.30;2329.60;;;;;;5048751;28;20082;-55
2023/01/18 11:08:22;;;;;;;32.88;20.95;;;384.30;2329.60;;;;;;5049225;28;20017;-57
2023/01/18 11:11:01;;;;;;;36.53;23.55;;;384.10;2329.60;;;;;;5030487;28;20057;-58
2023/01/18 11:13:30;;;;;;;29.10;18.80;;;384.20;2329.60;;;;;;5038468;28;20429;-57
2023/01/18 11:16:11;;;;;;;17.15;12.82;;;384.60;2329.60;;;;;;5039590;28;20371;-58
2023/01/18 11:18:37;;;;;;;17.80;11.20;;;384.70;2329.60;;;;;;5048372;28;20402;-58
2023/01/18 11:21:09;;;;;;;24.45;14.75;;;384.40;2329.60;;;;;;5032153;28;20387;-57
2023/01/18 11:23:35;;;;;;;18.13;12.70;;;384.40;2329.60;;;;;;5048124;28;20082;-58
2023/01/18 11:26:11;;;;;;;21.13;14.60;;;384.50;2329.60;;;;;;5049848;28;20055;-57
2023/01/18 11:29:01;;;;;;;33.30;18.90;;;384.60;2329.60;;;;;;5045946;28;20352;-58
2023/01/18 11:31:29;;;;;;;28.58;19.38;;;384.70;2329.60;;;;;;4984285;28;20041;-58
2023/01/18 11:33:57;;;;;;;24.50;17.60;;;384.80;2329.60;;;;;;4984792;28;20041;-59
2023/01/18 11:36:43;;;;;;;14.57;10.45;;;409.60;2355.20;;;;;;4984222;28;20038;-57
2023/01/18 11:39:26;;;;;;;33.85;13.10;;;409.70;2355.20;;;;;;4984650;28;20164;-56
2023/01/18 11:42:29;;;;;;;21.40;9.52;;;409.90;2355.20;;;;;;4984701;28;20124;-58
2023/01/18 11:45:23;;;;;;;18.35;13.13;;;409.90;2355.20;;;;;;5022988;28;20049;-58
2023/01/18 11:48:31;;;;;;;17.92;12.50;;;410.00;2355.20;;;;;;5024742;28;20065;-57
2023/01/18 11:51:09;;;;;;;35.58;22.20;;;410.10;2355.20;;;;;;4965743;28;20102;-57
2023/01/18 11:54:17;;;;;;;27.70;17.40;;;410.40;2355.20;;;;;;4963608;28;20118;-58
2023/01/18 11:56:54;;;;;;;16.73;13.02;;;410.50;2355.20;;;;;;4912951;28;20133;-58
2023/01/18 11:59:39;;;;;;;18.95;14.20;;;410.20;2201.60;;;;;;4964897;28;20497;-58
2023/01/18 12:02:45;;;;;;;25.85;18.23;;;410.20;2355.20;;;;;;4964487;28;20046;-57
2023/01/18 12:05:41;;;;;;;21.08;16.40;;;410.30;2355.20;;;;;;4880003;29;20036;-58
2023/01/18 12:08:22;;;;;;;35.65;24.30;;;410.30;2150.40;;;;;;4893741;29;20442;-57
2023/01/18 12:11:18;;;;;;;106.78;77.75;;;410.30;2227.20;;;;;;4917080;29;20031;-58
2023/01/18 12:14:02;;;;;;;28.88;20.42;;;435.20;2278.40;;;;;;4917434;29;20035;-57
2023/01/18 12:16:56;;;;;;;61.65;41.25;;;435.40;2099.20;;;;;;4917185;29;20143;-58
2023/01/18 12:19:29;;;;;;;86.43;56.42;;;435.30;2124.80;;;;;;4917207;29;20042;-56
2023/01/18 12:22:16;;;;;;;34.83;23.70;;;410.50;2176.00;;;;;;4956400;28;20104;-57
2023/01/18 12:25:22;;;;;;;22.20;15.40;;;435.30;1920.00;;;;;;4984555;28;20412;-57
2023/01/18 12:28:30;;;;;;;75.70;48.45;;;435.50;1766.40;;;;;;4984048;28;20070;-58
2023/01/18 12:31:05;;;;;;;43.88;26.30;;;435.80;1638.40;;;;;;4945224;29;20109;-57
2023/01/18 12:33:56;;;;;;;19.40;9.93;;;435.80;1612.80;;;;;;4934602;29;20050;-58
2023/01/18 12:36:51;;;;;;;74.38;50.45;;;435.90;1510.40;;;;;;4947766;29;20047;-57
2023/01/18 12:39:31;;;;;;;51.78;38.97;;;435.90;1484.80;;;;;;4947748;29;20031;-58
2023/01/18 12:42:05;;;;;;;20.88;8.13;;;435.80;1484.80;;;;;;5002407;28;20097;-57
2023/01/18 12:44:40;;;;;;;26.67;16.58;;;435.80;1459.20;;;;;;5015754;28;20049;-57
2023/01/18 12:47:38;;;;;;;19.92;11.73;;;435.80;1459.20;;;;;;5014689;28;20232;-59
2023/01/18 12:50:26;;;;;;;24.77;17.30;;;435.60;1561.60;;;;;;5023014;28;20361;-57
2023/01/18 12:53:09;;;;;;;38.15;23.63;;;435.40;1664.00;;;;;;5024171;28;20025;-57
2023/01/18 12:55:39;;;;;;;37.22;28.80;;;435.50;1587.20;;;;;;5020444;28;20579;-58